Tiempo atmosférico en la estación meteorológica de Ainsa, Huesca (610 m.)



Fecha
DESCASC
Temp. máxima en grados centígrados (hora)
DESCASC
Temp. mínima en grados centígrados (hora)
DESCASC
Temp. media en grados centígrados
DESCASC
Racha de viento máxima en m/sg (hora)
DESCASC
Velocidad máxima media en intervalos de 10 minutos(hora)
DESCASC
Precipitaciones diarias en mm
DESCASC
Precipitaciones de 00:00 a 06:00 en mm
DESCASC
Precipitaciones de 06:00 a 12:00 en mm
DESCASC
Precipitaciones de 12:00 a 18:00 en mm
DESCASC
Precipitaciones de 18:00 a 24:00 en mm
DESCASC
13-10-2019 26.1 (16:10) 14.7 (05:50) 20.4 7.5 (22:50) 5 (22:50) 0 0 0 0 0
12-10-2019 25 (14:40) 14.1 (06:10) 19.6 6.11 (21:10) 3.89 (20:00) 0 0 0 0 0
11-10-2019 26.8 (16:20) 7.5 (08:30) 17.1 5.28 (17:10) 4.17 (18:50) 0 0 0 0 0
10-10-2019 22.9 (15:20) 7.1 (00:00) 15 7.5 (17:20) 5.83 (17:20) 0 0 0 0 0
09-10-2019 26.7 (17:00) 11.7 (00:00) 19.2 10 (16:30) 6.67 (15:50) 0 0 0 0 0
08-10-2019 26.6 (16:30) 10.6 (00:00) 18.6 6.67 (15:30) 4.72 (15:10) 0 0 0 0 0
07-10-2019 25 (16:50) 9.2 (00:00) 17.1 13.33 (02:20) 8.33 (02:30) 0 0 0 0 0
06-10-2019 23.9 (18:20) 9.1 (00:00) 16.5 12.22 (20:40) 8.89 (20:50) 0 0 0 0 0
05-10-2019 26 (15:00) 10 (00:00) 18 8.61 (16:10) 5.83 (16:00) 0 0 0 0 0
04-10-2019 26.9 (17:00) 7.6 (00:00) 17.2 8.61 (18:00) 6.94 (17:50) 0 0 0 0 0
03-10-2019 24.4 (15:50) 7.5 (00:00) 15.9 6.11 (14:00) 4.44 (17:40) 0 0 0 0 0
02-10-2019 25.8 (15:50) 11.3 (00:00) 18.5 12.22 (19:50) 7.78 (21:00) 0 0 0 0 0
01-10-2019 29.8 (15:10) 12.4 (00:00) 21.1 10 (18:30) 7.78 (17:40) 0 0 0 0 0
30-09-2019 29.8 (15:40) 12 (00:00) 20.9 8.33 (16:50) 5.56 (16:00) 0 0 0 0 0
29-09-2019 30.3 (17:50) 11.2 (00:00) 20.7 8.61 (18:10) 6.11 (18:10) 0 0 0 0 0
28-09-2019 27.1 (14:50) 10.6 (00:00) 18.9 7.78 (15:50) 5.28 (17:40) 0 0 0 0 0
27-09-2019 28.7 (18:20) 12.3 (00:00) 20.5 8.61 (17:00) 5.83 (17:00) 0 0 0 0 0
26-09-2019 26.6 (15:50) 11.3 (00:00) 19 6.67 (17:20) 5 (17:50) 0 0 0 0 0
25-09-2019 25.9 (15:40) 12.8 (00:00) 19.3 6.11 (16:20) 4.17 (05:40) 0 0 0 0 0
24-09-2019 29.2 (16:10) 11 (00:00) 20.1 12.22 (19:00) 8.33 (18:00) 0 0 0 0 0
23-09-2019 23.6 (17:30) 10 (00:00) 16.8 6.39 (17:40) 4.44 (17:40) 0 0 0 0 0
22-09-2019 23.4 (17:40) 13.9 (00:00) 18.6 8.89 (14:40) 5 (14:50) 15 12.8 1 1.2 0
21-09-2019 25.8 (14:50) 15.2 (00:00) 20.5 7.22 (17:10) 5 (16:40) 0.6 0 0.2 0 0.4
20-09-2019 28.4 (16:40) 15.1 (00:00) 21.8 9.17 (19:40) 5.83 (19:20) 0 0 0 0 0
19-09-2019 27.9 (16:30) 13.7 (00:00) 20.8 8.06 (16:40) 5.28 (00:50) 0 0 0 0 0
18-09-2019 30.4 (15:40) 15.6 (00:00) 23 12.22 (18:30) 7.5 (18:30) 0 0 0 0 0
17-09-2019 31.2 (16:50) 15.4 (00:00) 23.3 7.22 (15:30) 5.28 (15:40) 0 0 0 0 0

Gráficas

Temp. máximas Temp. mínimas Temp. medias Precipitaciones Rachas de viento máximas Velocidades máximas media en intervalos de 10 minutos

Datos horarios

Fecha y hora oficial Temperatura (ºC) Velocidad del viento (km/h) Dirección del viento Racha (km/h) Dirección de racha Precipitación (mm) Presión (hPa) Tendencia (hPa) Humedad (%)
2019-10-16 23:00:00 11.2 8 Noroeste 18 Norte 0 -- -- 78
2019-10-16 22:00:00 11.9 9 Oeste 17 Noroeste 0 -- -- 73
2019-10-16 21:00:00 13 9 Norte 14 Norte 0 -- -- 71
2019-10-16 20:00:00 15.6 3 Norte 18 Sur 0 -- -- 57
2019-10-16 19:00:00 17.4 13 Sur 24 Sudeste 0 -- -- 49
2019-10-16 18:00:00 18.9 15 Sudeste 21 Sudeste 0 -- -- 47
2019-10-16 17:00:00 19.9 14 Sudeste 22 Sudeste 0 -- -- 44
2019-10-16 16:00:00 19 10 Sudeste 20 Sudeste 0 -- -- 47
2019-10-16 15:00:00 19.2 12 Sudeste 19 Sudeste 0 -- -- 46
2019-10-16 14:00:00 19 8 Sudeste 17 Sudeste 0 -- -- 47
2019-10-16 13:00:00 17.9 10 Sudeste 14 Sudeste 0 -- -- 49
2019-10-16 12:00:00 16.1 6 Sudeste 11 Sudeste 0 -- -- 55
2019-10-16 11:00:00 12.2 5 Nordeste 10 Sudeste 0 -- -- 71
2019-10-16 10:00:00 9.6 3 Oeste 10 Norte 0 -- -- 83
2019-10-16 09:00:00 7.5 3 Noroeste 10 Norte 0 -- -- 94
2019-10-16 08:00:00 7.2 6 Noroeste 14 Norte 0 -- -- 92
2019-10-16 07:00:00 7.3 7 Norte 12 Noroeste 0 -- -- 93
2019-10-16 06:00:00 7.3 6 Oeste 10 Noroeste 0 -- -- 92
2019-10-16 05:00:00 7.9 6 Noroeste 12 Norte 0 -- -- 89
2019-10-16 04:00:00 8.2 5 Noroeste 12 Norte 0 -- -- 90
2019-10-16 03:00:00 8.1 6 Noroeste 12 Noroeste 0 -- -- 90
2019-10-16 02:00:00 8 8 Norte 13 Norte 0 -- -- 91
2019-10-16 01:00:00 8.4 0 Calma 13 Norte 0 -- -- 88
2019-10-16 00:00:00 8.9 8 Norte 15 Norte 0 -- -- 87
2019-10-15 23:00:00 9.9 10 Norte 18 Norte 0 -- -- 83
2019-10-15 22:00:00 10.6 10 Norte 19 Norte 0 -- -- 79
2019-10-15 21:00:00 11.8 10 Norte 15 Norte 0 -- -- 71
2019-10-15 20:00:00 13.3 14 Oeste 18 Oeste 0 -- -- 60
2019-10-15 19:00:00 15.8 10 Oeste 25 Oeste 0 -- -- 52
2019-10-15 18:00:00 17.7 21 Sudoeste 29 Sudoeste 0 -- -- 47
2019-10-15 17:00:00 18.4 13 Sudoeste 21 Oeste 0 -- -- 45
2019-10-15 16:00:00 18.1 11 Oeste 25 Sur 0 -- -- 46
2019-10-15 15:00:00 18.2 8 Sudeste 18 Sudeste 0 -- -- 50
2019-10-15 14:00:00 17 8 Sudeste 15 Sur 0 -- -- 50
2019-10-15 13:00:00 16 6 Sur 13 Sudoeste 0 -- -- 53
2019-10-15 12:00:00 15.3 6 Este 20 Este 0.4 -- -- 61
2019-10-15 11:00:00 12.7 8 Sudeste 12 Este 0 -- -- 71
2019-10-15 10:00:00 9.2 6 Nordeste 13 Nordeste 0 -- -- 88
2019-10-15 09:00:00 7.3 8 Nordeste 15 Oeste 0 -- -- 94
2019-10-15 08:00:00 7.6 12 Noroeste 16 Noroeste 0 -- -- 88
2019-10-15 07:00:00 8.6 5 Sudoeste 22 Oeste 0 -- -- 80
2019-10-15 06:00:00 9.1 17 Oeste 30 Oeste 0 -- -- 84
2019-10-15 05:00:00 9 15 Noroeste 25 Oeste 0 -- -- 81
2019-10-15 04:00:00 10.2 21 Oeste 29 Oeste 0 -- -- 75
2019-10-15 03:00:00 10.5 11 Noroeste 26 Noroeste 0 -- -- 83
2019-10-15 02:00:00 11.1 5 Norte 22 Oeste 0.2 -- -- 89
2019-10-15 01:00:00 11.8 10 Noroeste 21 Oeste 0.2 -- -- 84
2019-10-15 00:00:00 12.4 5 Oeste 24 Oeste 0 -- -- 89
2019-10-14 23:00:00 13.3 6 Sudeste 11 Nordeste 0 -- -- 99
2019-10-14 22:00:00 13.5 6 Oeste 12 Oeste 0 -- -- 99
2019-10-14 21:00:00 14.1 5 Oeste 15 Norte 0.2 -- -- 98
2019-10-14 20:00:00 14.5 11 Noroeste 34 Oeste 5.8 -- -- 96
2019-10-14 19:00:00 15.8 18 Oeste 22 Oeste 0 -- -- 91
2019-10-14 18:00:00 17.2 6 Sudeste 24 Este 0 -- -- 79
2019-10-14 17:00:00 16.6 12 Este 23 Este 0 -- -- 86
2019-10-14 16:00:00 16.2 4 Norte 28 Nordeste 0.4 -- -- 97
2019-10-14 15:00:00 15.5 5 Este 12 Nordeste 2 -- -- 97
2019-10-14 14:00:00 15.3 4 Este 30 Oeste 2.2 -- -- 95
2019-10-14 13:00:00 15.4 5 Norte 21 Sudoeste 0.6 -- -- 94
2019-10-14 12:00:00 15 5 Norte 27 Oeste 0.2 -- -- 94
2019-10-14 11:00:00 14.5 7 Noroeste 14 Sudoeste 0.2 -- -- 94
2019-10-14 10:00:00 14 7 Nordeste 17 Oeste 0 -- -- 92
2019-10-14 09:00:00 13.5 5 Oeste 13 Noroeste 0 -- -- 91
2019-10-14 08:00:00 13.6 6 Noroeste 15 Noroeste 0 -- -- 92
2019-10-14 07:00:00 14 10 Norte 15 Noroeste 0 -- -- 91
2019-10-14 06:00:00 15 6 Norte 15 Norte 0 -- -- 88
2019-10-14 05:00:00 16.8 2 Norte 8 Noroeste 0 -- -- 82
2019-10-14 04:00:00 17.4 4 Noroeste 8 Este 0 -- -- 80
2019-10-14 03:00:00 18.1 0 Calma 8 Oeste 0 -- -- 78
2019-10-14 02:00:00 18.2 8 Oeste 12 Oeste 0 -- -- 78
2019-10-14 01:00:00 18.6 6 Sudoeste 16 Sur 0 -- -- 78
2019-10-14 00:00:00 19.3 12 Sudeste 23 Sudeste 0 -- -- 76
2019-10-13 23:00:00 19.8 17 Sur 27 Sur 0 -- -- 75
2019-10-13 22:00:00 20.4 12 Sur 19 Sudeste 0 -- -- 71
2019-10-13 21:00:00 21.4 7 Sudeste 17 Sur 0 -- -- 61
2019-10-13 20:00:00 22.1 4 Norte 6 Norte 0 -- -- 56
2019-10-13 19:00:00 23.5 4 Sudoeste 11 Sur 0 -- -- 52
2019-10-13 18:00:00 26 6 Sudoeste 14 Sudoeste 0 -- -- 46
2019-10-13 17:00:00 25.9 10 Sur 17 Sudeste 0 -- -- 45
2019-10-13 16:00:00 25.7 9 Sur 14 Sur 0 -- -- 46
2019-10-13 15:00:00 23.7 8 Sur 15 Sudeste 0 -- -- 52
2019-10-13 14:00:00 23.1 10 Sur 17 Sudeste 0 -- -- 55
2019-10-13 13:00:00 22.9 5 Sur 12 Oeste 0 -- -- 57
2019-10-13 12:00:00 20.7 6 Oeste 10 Oeste 0 -- -- 65
2019-10-13 11:00:00 18.9 2 Oeste 8 Oeste 0 -- -- 73
2019-10-13 10:00:00 16.7 4 Noroeste 10 Oeste 0 -- -- 83
2019-10-13 09:00:00 15.4 4 Oeste 7 Noroeste 0 -- -- 87
2019-10-13 08:00:00 15.1 4 Norte 11 Noroeste 0 -- -- 89
2019-10-13 07:00:00 14.7 8 Noroeste 13 Oeste 0 -- -- 90
2019-10-13 06:00:00 14.7 7 Oeste 10 Oeste 0 -- -- 91
2019-10-13 05:00:00 15.2 2 Norte 10 Oeste 0 -- -- 89
2019-10-13 04:00:00 15.5 0 Calma 5 Sudeste 0 -- -- 88
2019-10-13 03:00:00 16 3 Sur 9 Oeste 0 -- -- 86
2019-10-13 02:00:00 16.1 4 Oeste 12 Oeste 0 -- -- 85
2019-10-13 01:00:00 16.7 4 Oeste 6 Oeste 0 -- -- 83
2019-10-13 00:00:00 17.6 3 Norte 9 Noroeste 0 -- -- 80
2019-10-12 23:00:00 18.6 4 Nordeste 17 Sur 0 -- -- 76
2019-10-12 22:00:00 19.6 7 Sur 22 Sur 0 -- -- 73
2019-10-12 21:00:00 21 8 Sur 18 Sur 0 -- -- 67
2019-10-12 20:00:00 22.2 14 Sudeste 18 Sudeste 0 -- -- 61
2019-10-12 19:00:00 23.7 8 Sur 18 Sudeste 0 -- -- 55
2019-10-12 18:00:00 24.2 12 Sudeste 18 Sudeste 0 -- -- 52
2019-10-12 17:00:00 24.9 6 Sur 13 Sudoeste 0 -- -- 50
2019-10-12 16:00:00 24.8 5 Sur 13 Sudoeste 0 -- -- 51
2019-10-12 15:00:00 24.3 6 Sur 15 Sur 0 -- -- 53
2019-10-12 14:00:00 23.9 10 Sudeste 18 Sudeste 0 -- -- 56
2019-10-12 13:00:00 21 5 Sudeste 10 Sudeste 0 -- -- 67
2019-10-12 12:00:00 20.1 5 Sudeste 9 Sudeste 0 -- -- 71
2019-10-12 11:00:00 18.9 2 Sudoeste 5 Oeste 0 -- -- 75
2019-10-12 10:00:00 16.5 3 Norte 9 Oeste 0 -- -- 82
2019-10-12 09:00:00 14.9 8 Oeste 11 Oeste 0 -- -- 88
2019-10-12 08:00:00 14.5 5 Noroeste 7 Oeste 0 -- -- 86
2019-10-12 07:00:00 14.3 4 Este 11 Oeste 0 -- -- 86
2019-10-12 06:00:00 14.3 5 Oeste 10 Noroeste 0 -- -- 88
2019-10-12 05:00:00 14.5 6 Noroeste 10 Noroeste 0 -- -- 85
2019-10-12 04:00:00 14.6 7 Noroeste 11 Oeste 0 -- -- 83
2019-10-12 03:00:00 14.7 6 Noroeste 11 Oeste 0 -- -- 82
2019-10-12 02:00:00 15.4 5 Norte 13 Noroeste 0 -- -- 78
2019-10-12 01:00:00 16.1 4 Norte 18 Norte 0 -- -- 74
2019-10-12 00:00:00 17.6 10 Noroeste 13 Noroeste 0 -- -- 72
2019-10-11 23:00:00 18 8 Noroeste 17 Norte 0 -- -- 71
2019-10-11 22:00:00 18.8 10 Norte 13 Norte 0 -- -- 66
2019-10-11 21:00:00 19.9 8 Norte 13 Norte 0 -- -- 62
2019-10-11 20:00:00 21.6 9 Sudeste 18 Sudeste 0 -- -- 63
2019-10-11 19:00:00 23.3 14 Sudeste 19 Sudeste 0 -- -- 58
2019-10-11 18:00:00 25.5 14 Sudeste 19 Sudeste 0 -- -- 48
2019-10-11 17:00:00 26.6 14 Sudeste 18 Sudeste 0 -- -- 40
2019-10-11 16:00:00 26.2 10 Sudeste 17 Sudeste 0 -- -- 39
2019-10-11 15:00:00 25.4 9 Sudeste 17 Sudeste 0 -- -- 39
2019-10-11 14:00:00 24.5 9 Sudeste 14 Sudeste 0 -- -- 35
2019-10-11 13:00:00 22.2 7 Sudeste 11 Sudeste 0 -- -- 41
2019-10-11 12:00:00 19.2 4 Sur 10 Este 0 -- -- 51
2019-10-11 11:00:00 15.2 3 Sur 6 Sudeste 0 -- -- 63
2019-10-11 10:00:00 11.2 0 Calma 8 Oeste 0 -- -- 76
2019-10-11 09:00:00 8.2 6 Noroeste 10 Oeste 0 -- -- 87
2019-10-11 08:00:00 8 0 Calma 11 Noroeste 0 -- -- 89
2019-10-11 07:00:00 8.1 7 Norte 9 Noroeste 0 -- -- 88
2019-10-11 06:00:00 8.8 3 Noroeste 9 Norte 0 -- -- 85
2019-10-11 05:00:00 8.8 8 Noroeste 14 Noroeste 0 -- -- 85
2019-10-11 04:00:00 9.3 9 Noroeste 14 Norte 0 -- -- 83
2019-10-11 03:00:00 9.5 6 Noroeste 9 Norte 0 -- -- 82
2019-10-11 02:00:00 10.3 6 Noroeste 12 Noroeste 0 -- -- 77
2019-10-11 01:00:00 11.1 6 Noroeste 9 Noroeste 0 -- -- 74
2019-10-11 00:00:00 11.7 6 Oeste 12 Oeste 0 -- -- 71
2019-10-10 23:00:00 12.5 7 Oeste 12 Noroeste 0 -- -- 68
2019-10-10 22:00:00 13.7 7 Noroeste 10 Norte 0 -- -- 65
2019-10-10 21:00:00 16.1 3 Nordeste 11 Sudeste 0 -- -- 56
2019-10-10 20:00:00 17.4 9 Sudeste 20 Sudeste 0 -- -- 54
2019-10-10 19:00:00 19.5 14 Sudeste 26 Sudeste 0 -- -- 51
2019-10-10 18:00:00 21.4 18 Sudeste 27 Sudeste 0 -- -- 46
2019-10-10 17:00:00 22.2 19 Sudeste 23 Sudeste 0 -- -- 43
2019-10-10 16:00:00 22.7 14 Sudeste 25 Sudeste 0 -- -- 41
2019-10-10 15:00:00 22.4 10 Sudeste 20 Sudeste 0 -- -- 42
2019-10-10 14:00:00 21.3 11 Sudeste 18 Sudeste 0 -- -- 46
2019-10-10 13:00:00 20 10 Sudeste 14 Sudeste 0 -- -- 48
2019-10-10 12:00:00 17.7 6 Sudeste 11 Este 0 -- -- 58
2019-10-10 11:00:00 14.6 6 Sudeste 10 Este 0 -- -- 67
2019-10-10 10:00:00 11.3 2 Sudoeste 7 Este 0 -- -- 79
2019-10-10 09:00:00 8.4 0 Calma 8 Oeste 0 -- -- 90
2019-10-10 08:00:00 7.3 7 Noroeste 9 Noroeste 0 -- -- 94
2019-10-10 07:00:00 8.2 5 Noroeste 9 Norte 0 -- -- 89
2019-10-10 06:00:00 8.7 7 Norte 9 Norte 0 -- -- 91
2019-10-10 05:00:00 9.4 5 Nordeste 6 Oeste 0 -- -- 87
2019-10-10 04:00:00 10.6 3 Oeste 10 Noroeste 0 -- -- 80
2019-10-10 03:00:00 11 7 Noroeste 10 Norte 0 -- -- 82
2019-10-10 02:00:00 12.6 6 Noroeste 13 Noroeste 0 -- -- 74
2019-10-10 01:00:00 13.5 11 Noroeste 14 Noroeste 0 -- -- 71
2019-10-10 00:00:00 14.5 5 Noroeste 12 Noroeste 0 -- -- 64
2019-10-09 23:00:00 15.7 2 Sudoeste 9 Oeste 0 -- -- 60
2019-10-09 22:00:00 17.1 8 Oeste 12 Sudoeste 0 -- -- 53
2019-10-09 21:00:00 19 8 Oeste 15 Oeste 0 -- -- 50
2019-10-09 20:00:00 20.7 12 Oeste 18 Sudeste 0 -- -- 47
2019-10-09 19:00:00 24.5 9 Sur 29 Sudoeste 0 -- -- 42
2019-10-09 18:00:00 26.5 15 Sudoeste 30 Sudoeste 0 -- -- 37
2019-10-09 17:00:00 26.7 13 Sudoeste 36 Sur 0 -- -- 36
2019-10-09 16:00:00 24.6 22 Sudeste 33 Sudeste 0 -- -- 53
2019-10-09 15:00:00 23.6 18 Sudeste 31 Sudeste 0 -- -- 55
2019-10-09 14:00:00 24.5 17 Sudeste 24 Sudeste 0 -- -- 54
2019-10-09 13:00:00 23.4 13 Sudeste 21 Sudeste 0 -- -- 52
2019-10-09 12:00:00 20 4 Nordeste 9 Este 0 -- -- 56
2019-10-09 11:00:00 17.1 2 Oeste 7 Sudeste 0 -- -- 66
2019-10-09 10:00:00 15.3 3 Sur 7 Este 0 -- -- 71
2019-10-09 09:00:00 12.3 3 Sudeste 9 Noroeste 0 -- -- 81
2019-10-09 08:00:00 11.9 5 Noroeste 9 Oeste 0 -- -- 81
2019-10-09 07:00:00 11.9 5 Noroeste 10 Norte 0 -- -- 82
2019-10-09 06:00:00 11.9 5 Noroeste 9 Noroeste 0 -- -- 83
2019-10-09 05:00:00 12.7 6 Oeste 13 Noroeste 0 -- -- 78
2019-10-09 04:00:00 12.9 10 Noroeste 12 Oeste 0 -- -- 77
2019-10-09 03:00:00 13.3 7 Noroeste 15 Noroeste 0 -- -- 76
2019-10-09 02:00:00 14.2 6 Noroeste 9 Oeste 0 -- -- 72
2019-10-09 01:00:00 14.8 8 Noroeste 13 Noroeste 0 -- -- 69
2019-10-09 00:00:00 15.6 5 Noroeste 13 Noroeste 0 -- -- 66
2019-10-08 23:00:00 16.6 7 Noroeste 12 Oeste 0 -- -- 62
2019-10-08 22:00:00 17.7 8 Oeste 13 Norte 0 -- -- 58
2019-10-08 21:00:00 19.7 8 Noroeste 13 Norte 0 -- -- 53
2019-10-08 20:00:00 21.9 6 Sudeste 17 Sudeste 0 -- -- 47
2019-10-08 19:00:00 24.1 15 Sudeste 18 Sudeste 0 -- -- 43
2019-10-08 18:00:00 25.9 14 Sudeste 19 Sudeste 0 -- -- 38
2019-10-08 17:00:00 26.4 12 Sudeste 20 Sudeste 0 -- -- 37
2019-10-08 16:00:00 26.4 14 Sudeste 24 Sudeste 0 -- -- 35
2019-10-08 15:00:00 26.2 15 Sudeste 22 Sudeste 0 -- -- 36
2019-10-08 14:00:00 25.6 12 Sudeste 17 Sudeste 0 -- -- 38
2019-10-08 13:00:00 24 8 Sudeste 19 Este 0 -- -- 41
2019-10-08 12:00:00 21.4 11 Sudeste 15 Sudeste 0 -- -- 50
2019-10-08 11:00:00 18.7 4 Sur 10 Sudeste 0 -- -- 60
2019-10-08 10:00:00 14.3 2 Oeste 9 Norte 0 -- -- 73
2019-10-08 09:00:00 11.4 4 Norte 9 Norte 0 -- -- 82
2019-10-08 08:00:00 11.1 6 Noroeste 9 Norte 0 -- -- 83
2019-10-08 07:00:00 10.8 4 Norte 6 Norte 0 -- -- 82
2019-10-08 06:00:00 11.9 2 Nordeste 10 Noroeste 0 -- -- 77
2019-10-08 05:00:00 12 8 Noroeste 10 Norte 0 -- -- 77
2019-10-08 04:00:00 13.1 6 Noroeste 10 Oeste 0 -- -- 71
2019-10-08 03:00:00 13.6 3 Nordeste 11 Sudeste 0 -- -- 65
2019-10-08 02:00:00 15 3 Oeste 8 Oeste 0 -- -- 62
2019-10-08 01:00:00 15.4 6 Noroeste 13 Oeste 0 -- -- 60
2019-10-08 00:00:00 15.9 6 Norte 10 Nordeste 0 -- -- 56
2019-10-07 23:00:00 17.2 4 Noroeste 10 Noroeste 0 -- -- 51
2019-10-07 22:00:00 18 5 Noroeste 14 Oeste 0 -- -- 49
2019-10-07 21:00:00 19.3 5 Noroeste 15 Norte 0 -- -- 45
2019-10-07 20:00:00 21.6 6 Noroeste 13 Norte 0 -- -- 39
2019-10-07 19:00:00 23.7 6 Sudeste 12 Sur 0 -- -- 33
2019-10-07 18:00:00 24.6 10 Sudeste 18 Sudeste 0 -- -- 33
2019-10-07 17:00:00 24.9 14 Sudeste 19 Sudeste 0 -- -- 33
2019-10-07 16:00:00 24.2 8 Sudeste 21 Sudeste 0 -- -- 32
2019-10-07 15:00:00 23.6 15 Sudeste 21 Sudeste 0 -- -- 30
2019-10-07 14:00:00 23.4 6 Sudeste 13 Sudeste 0 -- -- 29
2019-10-07 13:00:00 21.9 6 Este 13 Este 0 -- -- 32
2019-10-07 12:00:00 19.6 6 Nordeste 11 Norte 0 -- -- 36
2019-10-07 11:00:00 15.7 3 Norte 9 Este 0 -- -- 46
2019-10-07 10:00:00 13.4 2 Sudoeste 10 Norte 0 -- -- 56
2019-10-07 09:00:00 9.9 4 Norte 13 Norte 0 -- -- 64
2019-10-07 08:00:00 9.9 6 Nordeste 12 Norte 0 -- -- 59
2019-10-07 07:00:00 11.1 5 Nordeste 10 Norte 0 -- -- 56
2019-10-07 06:00:00 11.8 5 Norte 13 Sudeste 0 -- -- 59
2019-10-07 05:00:00 12.6 8 Sur 23 Oeste 0 -- -- 55
2019-10-07 04:00:00 13.8 19 Oeste 32 Oeste 0 -- -- 46
2019-10-07 03:00:00 14 22 Oeste 48 Oeste 0 -- -- 50
2019-10-07 02:00:00 14.6 27 Oeste 36 Oeste 0 -- -- 52
2019-10-07 01:00:00 15.3 26 Oeste 37 Oeste 0 -- -- 51
2019-10-07 00:00:00 17 23 Oeste 37 Noroeste 0 -- -- 44
2019-10-06 23:00:00 17.7 24 Noroeste 41 Oeste 0 -- -- 43
2019-10-06 22:00:00 18.2 18 Oeste 35 Oeste 0 -- -- 48
2019-10-06 21:00:00 19.3 31 Oeste 44 Oeste 0 -- -- 49
2019-10-06 20:00:00 20.5 15 Oeste 32 Noroeste 0 -- -- 47
2019-10-06 19:00:00 23.2 26 Oeste 33 Noroeste 0 -- -- 43
2019-10-06 18:00:00 23.5 7 Sudeste 10 Sudeste 0 -- -- 45
2019-10-06 17:00:00 23.2 8 Sudeste 18 Sudeste 0 -- -- 47
2019-10-06 16:00:00 22.3 15 Sudeste 28 Sudeste 0 -- -- 52
2019-10-06 15:00:00 22.1 18 Sudeste 26 Sudeste 0 -- -- 56
2019-10-06 14:00:00 22.6 14 Sudeste 22 Sudeste 0 -- -- 51
2019-10-06 13:00:00 20.1 8 Sudeste 15 Sur 0 -- -- 55
2019-10-06 12:00:00 17.6 9 Sudeste 13 Sudeste 0 -- -- 63
2019-10-06 11:00:00 15.7 5 Sudeste 9 Este 0 -- -- 69
2019-10-06 10:00:00 12.8 2 Este 9 Nordeste 0 -- -- 80
2019-10-06 09:00:00 10.5 0 Calma 10 Oeste 0 -- -- 89
2019-10-06 08:00:00 9.3 4 Noroeste 10 Oeste 0 -- -- 93
2019-10-06 07:00:00 10 4 Noroeste 10 Norte 0 -- -- 90
2019-10-06 06:00:00 10.6 7 Noroeste 11 Noroeste 0 -- -- 89
2019-10-06 05:00:00 11.1 6 Noroeste 11 Noroeste 0 -- -- 86
2019-10-06 04:00:00 12.1 4 Noroeste 8 Noroeste 0 -- -- 83
2019-10-06 03:00:00 12.7 5 Oeste 16 Noroeste 0 -- -- 79
2019-10-06 02:00:00 13.3 9 Noroeste 14 Noroeste 0 -- -- 79
2019-10-06 01:00:00 13.6 7 Noroeste 11 Noroeste 0 -- -- 77
2019-10-06 00:00:00 14.4 8 Noroeste 12 Noroeste 0 -- -- 76
2019-10-05 23:00:00 15.4 9 Noroeste 13 Noroeste 0 -- -- 71
2019-10-05 22:00:00 17 9 Noroeste 12 Noroeste 0 -- -- 67
2019-10-05 21:00:00 19.2 6 Norte 13 Sudeste 0 -- -- 59
2019-10-05 20:00:00 20.4 10 Sur 20 Sudeste 0 -- -- 54
2019-10-05 19:00:00 22.5 14 Sudeste 25 Sudeste 0 -- -- 51
2019-10-05 18:00:00 24.1 19 Sudeste 26 Sudeste 0 -- -- 46
2019-10-05 17:00:00 25.9 13 Sudeste 31 Sudeste 0 -- -- 43
2019-10-05 16:00:00 25.2 21 Sudeste 28 Sudeste 0 -- -- 45
2019-10-05 15:00:00 26 15 Sudeste 24 Sudeste 0 -- -- 42
2019-10-05 14:00:00 24.7 10 Sudeste 16 Este 0 -- -- 44
2019-10-05 13:00:00 23.2 9 Sudeste 14 Sudeste 0 -- -- 45
2019-10-05 12:00:00 20.6 5 Este 12 Este 0 -- -- 47
2019-10-05 11:00:00 17.6 5 Sudeste 9 Este 0 -- -- 55
2019-10-05 10:00:00 13.8 4 Sudeste 8 Noroeste 0 -- -- 74
2019-10-05 09:00:00 10.9 5 Noroeste 12 Noroeste 0 -- -- 83
2019-10-05 08:00:00 10.2 9 Noroeste 14 Noroeste 0 -- -- 86
2019-10-05 07:00:00 11 8 Noroeste 10 Noroeste 0 -- -- 84
2019-10-05 06:00:00 11 6 Noroeste 13 Norte 0 -- -- 86
2019-10-05 05:00:00 11.9 8 Noroeste 15 Noroeste 0 -- -- 83
2019-10-05 04:00:00 13 9 Noroeste 17 Norte 0 -- -- 79
2019-10-05 03:00:00 13.7 8 Noroeste 18 Norte 0 -- -- 78
2019-10-05 02:00:00 14.5 11 Noroeste 16 Norte 0 -- -- 75
2019-10-05 01:00:00 14.4 12 Norte 17 Norte 0 -- -- 76
2019-10-05 00:00:00 16 14 Norte 18 Norte 0 -- -- 71
2019-10-04 23:00:00 18.6 3 Norte 22 Oeste 0 -- -- 60
2019-10-04 22:00:00 20.1 7 Oeste 19 Sudoeste 0 -- -- 53
2019-10-04 21:00:00 20.9 10 Oeste 19 Sudoeste 0 -- -- 50
2019-10-04 20:00:00 22.7 8 Oeste 17 Noroeste 0 -- -- 49
2019-10-04 19:00:00 24.5 5 Sudeste 29 Sudeste 0 -- -- 50
2019-10-04 18:00:00 24.7 24 Sudeste 31 Sudeste 0 -- -- 48
2019-10-04 17:00:00 26.9 9 Sudeste 28 Sudeste 0 -- -- 40
2019-10-04 16:00:00 25.7 14 Sudeste 26 Sudeste 0 -- -- 36
2019-10-04 15:00:00 25.8 12 Sudeste 19 Sudeste 0 -- -- 35
2019-10-04 14:00:00 24.4 10 Sudeste 19 Sudeste 0 -- -- 35
2019-10-04 13:00:00 22.6 13 Sudeste 19 Sudeste 0 -- -- 36
2019-10-04 12:00:00 19.7 8 Sudeste 12 Sudeste 0 -- -- 39
2019-10-04 11:00:00 16.4 3 Sudoeste 8 Noroeste 0 -- -- 50
2019-10-04 10:00:00 12 2 Oeste 8 Noroeste 0 -- -- 59
2019-10-04 09:00:00 8.8 3 Oeste 12 Oeste 0 -- -- 71
2019-10-04 08:00:00 7.7 7 Noroeste 12 Noroeste 0 -- -- 76
2019-10-04 07:00:00 8.4 6 Noroeste 16 Norte 0 -- -- 71
2019-10-04 06:00:00 8.8 8 Noroeste 12 Oeste 0 -- -- 66
2019-10-04 05:00:00 9.7 8 Noroeste 14 Noroeste 0 -- -- 70
2019-10-04 04:00:00 10.2 8 Noroeste 13 Noroeste 0 -- -- 67
2019-10-04 03:00:00 10.4 6 Noroeste 17 Norte 0 -- -- 70
2019-10-04 02:00:00 12.2 4 Oeste 18 Norte 0 -- -- 61
2019-10-04 01:00:00 12.5 9 Norte 15 Norte 0 -- -- 66
2019-10-04 00:00:00 13.9 9 Noroeste 17 Norte 0 -- -- 58
2019-10-03 23:00:00 14.4 10 Noroeste 20 Noroeste 0 -- -- 62
2019-10-03 22:00:00 15.6 7 Noroeste 17 Oeste 0 -- -- 59
2019-10-03 21:00:00 17.1 7 Noroeste 15 Norte 0 -- -- 54
2019-10-03 20:00:00 20.7 0 Calma 10 Sur 0 -- -- 44
2019-10-03 19:00:00 22.3 8 Sudeste 17 Sudeste 0 -- -- 42
2019-10-03 18:00:00 23.2 15 Sudeste 21 Sudeste 0 -- -- 40
2019-10-03 17:00:00 24.3 13 Sudeste 21 Sudeste 0 -- -- 35
2019-10-03 16:00:00 24.3 12 Sudeste 18 Sudeste 0 -- -- 34
2019-10-03 15:00:00 23.9 6 Sudeste 19 Sudeste 0 -- -- 34
2019-10-03 14:00:00 22.6 12 Sudeste 22 Sudeste 0 -- -- 32
2019-10-03 13:00:00 20.2 7 Sudeste 12 Sudeste 0 -- -- 33
2019-10-03 12:00:00 16.9 5 Sudeste 13 Este 0 -- -- 37
2019-10-03 11:00:00 11.9 3 Sur 7 Sudoeste 0 -- -- 56
2019-10-03 10:00:00 9.4 0 Calma 8 Oeste 0 -- -- 64
2019-10-03 09:00:00 8 3 Oeste 10 Norte 0 -- -- 67
2019-10-03 08:00:00 7.8 10 Norte 13 Norte 0 -- -- 66
2019-10-03 07:00:00 8.4 8 Noroeste 19 Norte 0 -- -- 67
2019-10-03 06:00:00 8.8 8 Noroeste 20 Noroeste 0 -- -- 65
2019-10-03 05:00:00 8.7 10 Noroeste 17 Noroeste 0 -- -- 69
2019-10-03 04:00:00 9.7 8 Noroeste 13 Norte 0 -- -- 65
2019-10-03 03:00:00 10.9 10 Noroeste 15 Norte 0 -- -- 60
2019-10-03 02:00:00 11.8 8 Norte 17 Oeste 0 -- -- 59
2019-10-03 01:00:00 13.5 7 Noroeste 20 Oeste 0 -- -- 58
2019-10-03 00:00:00 14.4 12 Oeste 26 Oeste 0 -- -- 57
2019-10-02 23:00:00 15.5 21 Oeste 30 Oeste 0 -- -- 54
2019-10-02 22:00:00 16.9 21 Oeste 34 Oeste 0 -- -- 51
2019-10-02 21:00:00 17.3 28 Oeste 39 Norte 0 -- -- 51
2019-10-02 20:00:00 19.7 26 Norte 44 Norte 0 -- -- 37
2019-10-02 19:00:00 21.1 24 Norte 42 Norte 0 -- -- 36
2019-10-02 18:00:00 23.3 23 Norte 41 Norte 0 -- -- 31
2019-10-02 17:00:00 24.4 17 Norte 38 Norte 0 -- -- 30
2019-10-02 16:00:00 25.7 13 Norte 36 Norte 0 -- -- 30
2019-10-02 15:00:00 24.3 14 Oeste 28 Noroeste 0 -- -- 36
2019-10-02 14:00:00 24.4 15 Oeste 26 Oeste 0 -- -- 37
2019-10-02 13:00:00 22.6 8 Noroeste 15 Norte 0 -- -- 40
2019-10-02 12:00:00 20.1 4 Nordeste 10 Este 0 -- -- 49
2019-10-02 11:00:00 16.5 4 Sudoeste 12 Norte 0 -- -- 59
2019-10-02 10:00:00 16 6 Este 13 Norte 0 -- -- 58
2019-10-02 09:00:00 12 9 Norte 23 Norte 0 -- -- 65
2019-10-02 08:00:00 11.4 9 Norte 17 Norte 0 -- -- 63
2019-10-02 07:00:00 11.9 5 Nordeste 14 Norte 0 -- -- 63
2019-10-02 06:00:00 12.8 6 Noroeste 19 Norte 0 -- -- 58
2019-10-02 05:00:00 14.3 9 Noroeste 27 Oeste 0 -- -- 55
2019-10-02 04:00:00 14.9 8 Oeste 17 Sudoeste 0 -- -- 58
2019-10-02 03:00:00 14.4 12 Noroeste 17 Norte 0 -- -- 50
2019-10-02 02:00:00 16.1 13 Oeste 25 Oeste 0 -- -- 51
2019-10-02 01:00:00 16.8 12 Oeste 19 Oeste 0 -- -- 44
2019-10-02 00:00:00 18.2 14 Oeste 33 Oeste 0 -- -- 43
2019-10-01 23:00:00 19.3 17 Oeste 31 Oeste 0 -- -- 43
2019-10-01 22:00:00 20.7 19 Oeste 32 Oeste 0 -- -- 43
2019-10-01 21:00:00 21.8 20 Oeste 34 Noroeste 0 -- -- 41
2019-10-01 20:00:00 23.2 24 Oeste 35 Oeste 0 -- -- 39
2019-10-01 19:00:00 25.8 22 Oeste 36 Oeste 0 -- -- 33
2019-10-01 18:00:00 27.7 22 Oeste 35 Oeste 0 -- -- 34
2019-10-01 17:00:00 28.4 16 Oeste 26 Oeste 0 -- -- 33
2019-10-01 16:00:00 28.5 8 Sudeste 26 Sudeste 0 -- -- 36
2019-10-01 15:00:00 29.4 14 Sudeste 21 Sudeste 0 -- -- 35
2019-10-01 14:00:00 28.5 13 Sudeste 19 Sudeste 0 -- -- 36
2019-10-01 13:00:00 26.4 12 Sudeste 17 Sudeste 0 -- -- 41
2019-10-01 12:00:00 23.5 5 Este 12 Este 0 -- -- 45
2019-10-01 11:00:00 20.4 4 Sur 9 Este 0 -- -- 57
2019-10-01 10:00:00 16.1 0 Calma 6 Este 0 -- -- 69
2019-10-01 09:00:00 13 3 Norte 7 Noroeste 0 -- -- 80
2019-10-01 08:00:00 12.4 3 Norte 8 Oeste 0 -- -- 80
2019-10-01 07:00:00 13.2 0 Calma 8 Noroeste 0 -- -- 76
2019-10-01 06:00:00 13.6 5 Noroeste 10 Noroeste 0 -- -- 75
2019-10-01 05:00:00 13.9 6 Oeste 9 Noroeste 0 -- -- 73
2019-10-01 04:00:00 14.3 5 Oeste 10 Noroeste 0 -- -- 71
2019-10-01 03:00:00 15 6 Noroeste 15 Noroeste 0 -- -- 71
2019-10-01 02:00:00 15.3 8 Noroeste 12 Noroeste 0 -- -- 69
2019-10-01 01:00:00 15.7 8 Oeste 14 Noroeste 0 -- -- 67
2019-10-01 00:00:00 16.7 8 Oeste 12 Oeste 0 -- -- 62
2019-09-30 23:00:00 18 7 Noroeste 11 Oeste 0 -- -- 59
2019-09-30 22:00:00 19.5 9 Noroeste 16 Norte 0 -- -- 54
2019-09-30 21:00:00 22.4 8 Norte 12 Norte 0 -- -- 48
2019-09-30 20:00:00 24.4 12 Sudeste 24 Sudeste 0 -- -- 43
2019-09-30 19:00:00 26.6 17 Sudeste 26 Sudeste 0 -- -- 39
2019-09-30 18:00:00 28.2 17 Sudeste 30 Sudeste 0 -- -- 36
2019-09-30 17:00:00 29.1 16 Sur 30 Sudeste 0 -- -- 34
2019-09-30 16:00:00 29.3 20 Sudeste 29 Sudeste 0 -- -- 33
2019-09-30 15:00:00 28.9 19 Sudeste 26 Sudeste 0 -- -- 33
2019-09-30 14:00:00 28.6 15 Sudeste 20 Este 0 -- -- 33
2019-09-30 13:00:00 27.2 11 Sudeste 18 Sudeste 0 -- -- 35
2019-09-30 12:00:00 23.3 7 Sudeste 12 Este 0 -- -- 43
2019-09-30 11:00:00 20.1 4 Sudoeste 10 Sur 0 -- -- 52
2019-09-30 10:00:00 16 3 Noroeste 8 Noroeste 0 -- -- 64
2019-09-30 09:00:00 13.1 4 Noroeste 12 Noroeste 0 -- -- 69
2019-09-30 08:00:00 12.4 6 Noroeste 12 Noroeste 0 -- -- 69
2019-09-30 07:00:00 12.8 9 Noroeste 14 Noroeste 0 -- -- 68
2019-09-30 06:00:00 13 5 Noroeste 15 Noroeste 0 -- -- 67
2019-09-30 05:00:00 13.2 8 Oeste 13 Noroeste 0 -- -- 66
2019-09-30 04:00:00 14.7 8 Noroeste 12 Noroeste 0 -- -- 60
2019-09-30 03:00:00 15.4 7 Norte 16 Norte 0 -- -- 58
2019-09-30 02:00:00 15.8 12 Norte 16 Noroeste 0 -- -- 57
2019-09-30 01:00:00 16.9 10 Norte 18 Norte 0 -- -- 53
2019-09-30 00:00:00 17.9 11 Noroeste 18 Norte 0 -- -- 48
2019-09-29 23:00:00 18.6 10 Noroeste 22 Norte 0 -- -- 47
2019-09-29 22:00:00 20.7 18 Norte 22 Norte 0 -- -- 41
2019-09-29 21:00:00 23.1 10 Norte 13 Norte 0 -- -- 32
2019-09-29 20:00:00 25.5 8 Noroeste 28 Oeste 0 -- -- 25
2019-09-29 19:00:00 28.8 18 Oeste 31 Oeste 0 -- -- 23
2019-09-29 18:00:00 30.2 21 Oeste 28 Oeste 0 -- -- 21
2019-09-29 17:00:00 29.4 19 Sudeste 26 Sudeste 0 -- -- 33
2019-09-29 16:00:00 29.5 16 Sudeste 23 Sudeste 0 -- -- 34
2019-09-29 15:00:00 29.1 14 Sudeste 19 Sudeste 0 -- -- 35
2019-09-29 14:00:00 27.9 10 Sudeste 16 Sudeste 0 -- -- 38
2019-09-29 13:00:00 25.4 9 Sudeste 14 Sudeste 0 -- -- 41
2019-09-29 12:00:00 22.5 4 Sudeste 12 Este 0 -- -- 49
2019-09-29 11:00:00 18.7 6 Este 10 Este 0 -- -- 61
2019-09-29 10:00:00 15.1 2 Oeste 5 Noroeste 0 -- -- 76
2019-09-29 09:00:00 12 2 Noroeste 7 Norte 0 -- -- 86
2019-09-29 08:00:00 11.5 3 Oeste 8 Norte 0 -- -- 85
2019-09-29 07:00:00 12 3 Noroeste 9 Oeste 0 -- -- 84
2019-09-29 06:00:00 12.5 4 Noroeste 11 Noroeste 0 -- -- 84
2019-09-29 05:00:00 12.5 8 Noroeste 11 Noroeste 0 -- -- 84
2019-09-29 04:00:00 12.8 4 Noroeste 11 Noroeste 0 -- -- 83
2019-09-29 03:00:00 13.6 5 Oeste 11 Norte 0 -- -- 79
2019-09-29 02:00:00 13.9 6 Noroeste 12 Norte 0 -- -- 79
2019-09-29 01:00:00 14.4 6 Oeste 17 Norte 0 -- -- 76
2019-09-29 00:00:00 15.6 8 Oeste 12 Oeste 0 -- -- 71
2019-09-28 23:00:00 16.5 8 Oeste 12 Oeste 0 -- -- 67
2019-09-28 22:00:00 17.8 10 Noroeste 14 Noroeste 0 -- -- 62
2019-09-28 21:00:00 20.2 7 Norte 10 Sudeste 0 -- -- 55
2019-09-28 20:00:00 22.5 8 Sudeste 20 Sudeste 0 -- -- 47
2019-09-28 19:00:00 24.8 13 Sur 24 Sudeste 0 -- -- 42
2019-09-28 18:00:00 25.8 16 Sudeste 27 Sudeste 0 -- -- 43
2019-09-28 17:00:00 26.1 17 Sudeste 25 Sudeste 0 -- -- 45
2019-09-28 16:00:00 26.5 17 Sudeste 28 Sudeste 0 -- -- 45
2019-09-28 15:00:00 26.7 12 Sudeste 19 Sudeste 0 -- -- 41
2019-09-28 14:00:00 26.2 8 Sudeste 19 Sudeste 0 -- -- 42
2019-09-28 13:00:00 24 9 Sudeste 15 Sudeste 0 -- -- 48
2019-09-28 12:00:00 21.9 6 Sudeste 10 Este 0 -- -- 48
2019-09-28 11:00:00 17.9 4 Noroeste 10 Este 0 -- -- 55
2019-09-28 10:00:00 14.5 4 Sudeste 7 Norte 0 -- -- 69
2019-09-28 09:00:00 11.2 3 Norte 8 Noroeste 0 -- -- 78
2019-09-28 08:00:00 10.9 4 Noroeste 15 Norte 0 -- -- 73
2019-09-28 07:00:00 11.2 7 Noroeste 12 Norte 0 -- -- 73
2019-09-28 06:00:00 11.8 8 Noroeste 13 Noroeste 0 -- -- 71
2019-09-28 05:00:00 11.7 8 Noroeste 15 Norte 0 -- -- 71
2019-09-28 04:00:00 13.2 6 Noroeste 13 Norte 0 -- -- 63
2019-09-28 03:00:00 14 8 Noroeste 13 Norte 0 -- -- 61
2019-09-28 02:00:00 15 12 Noroeste 17 Oeste 0 -- -- 56
2019-09-28 01:00:00 15 11 Norte 16 Norte 0 -- -- 60
2019-09-28 00:00:00 16.3 11 Norte 21 Norte 0 -- -- 53
2019-09-27 23:00:00 17.9 18 Norte 23 Noroeste 0 -- -- 49
2019-09-27 22:00:00 19.2 11 Noroeste 19 Oeste 0 -- -- 43
2019-09-27 21:00:00 22.2 6 Noroeste 14 Oeste 0 -- -- 39
2019-09-27 20:00:00 23.9 8 Oeste 22 Oeste 0 -- -- 37
2019-09-27 19:00:00 27.5 15 Oeste 24 Oeste 0 -- -- 35
2019-09-27 18:00:00 28.3 11 Sudeste 29 Sudeste 0 -- -- 38
2019-09-27 17:00:00 27.7 21 Sudeste 31 Sudeste 0 -- -- 40
2019-09-27 16:00:00 28 20 Sudeste 28 Sudeste 0 -- -- 40
2019-09-27 15:00:00 28.4 12 Sudeste 20 Sudeste 0 -- -- 39
2019-09-27 14:00:00 27.6 13 Sudeste 21 Sudeste 0 -- -- 40
2019-09-27 13:00:00 25.7 11 Sudeste 17 Sudeste 0 -- -- 45
2019-09-27 12:00:00 23.2 7 Sudeste 11 Sudeste 0 -- -- 54
2019-09-27 11:00:00 19.9 5 Este 10 Nordeste 0 -- -- 65
2019-09-27 10:00:00 15.9 3 Noroeste 8 Noroeste 0 -- -- 80
2019-09-27 09:00:00 13.4 4 Noroeste 9 Noroeste 0 -- -- 87
2019-09-27 08:00:00 12.6 6 Noroeste 12 Noroeste 0 -- -- 90
2019-09-27 07:00:00 13 5 Oeste 12 Norte 0 -- -- 87
2019-09-27 06:00:00 13.4 5 Noroeste 10 Noroeste 0 -- -- 87
2019-09-27 05:00:00 13.5 4 Oeste 12 Noroeste 0 -- -- 86
2019-09-27 04:00:00 14.2 6 Oeste 12 Noroeste 0 -- -- 83
2019-09-27 03:00:00 14.7 8 Noroeste 11 Noroeste 0 -- -- 82
2019-09-27 02:00:00 15.3 6 Noroeste 12 Norte 0 -- -- 79
2019-09-27 01:00:00 16.5 4 Noroeste 10 Norte 0 -- -- 75
2019-09-27 00:00:00 17.2 6 Noroeste 11 Oeste 0 -- -- 72
2019-09-26 23:00:00 17.7 9 Noroeste 18 Norte 0 -- -- 70
2019-09-26 22:00:00 19.3 14 Norte 19 Norte 0 -- -- 65
2019-09-26 21:00:00 21.6 6 Norte 13 Sudeste 0 -- -- 56
2019-09-26 20:00:00 23 13 Sudeste 20 Sudeste 0 -- -- 52
2019-09-26 19:00:00 24.8 15 Sudeste 23 Sudeste 0 -- -- 48
2019-09-26 18:00:00 25.9 18 Sudeste 24 Sudeste 0 -- -- 44
2019-09-26 17:00:00 26.4 17 Sudeste 23 Sudeste 0 -- -- 43
2019-09-26 16:00:00 26.5 13 Sudeste 23 Sudeste 0 -- -- 42
2019-09-26 15:00:00 26.1 12 Sudeste 21 Sudeste 0 -- -- 43
2019-09-26 14:00:00 25.4 9 Sudeste 22 Este 0 -- -- 44
2019-09-26 13:00:00 24.1 10 Sudeste 17 Sudeste 0 -- -- 47
2019-09-26 12:00:00 21.6 10 Sudeste 15 Sudeste 0 -- -- 55
2019-09-26 11:00:00 18.9 6 Este 10 Este 0 -- -- 64
2019-09-26 10:00:00 15.7 4 Sur 9 Sudeste 0 -- -- 77
2019-09-26 09:00:00 12.3 5 Noroeste 10 Norte 0 -- -- 90
2019-09-26 08:00:00 11.5 5 Noroeste 10 Norte 0 -- -- 90
2019-09-26 07:00:00 11.8 11 Norte 15 Norte 0 -- -- 91
2019-09-26 06:00:00 12.5 3 Oeste 15 Norte 0 -- -- 84
2019-09-26 05:00:00 12.9 10 Norte 12 Norte 0 -- -- 86
2019-09-26 04:00:00 13.1 6 Noroeste 15 Norte 0 -- -- 85
2019-09-26 03:00:00 14.2 10 Norte 14 Norte 0 -- -- 80
2019-09-26 02:00:00 14.7 11 Norte 14 Norte 0 -- -- 77
2019-09-26 01:00:00 16 9 Norte 13 Noroeste 0 -- -- 72
2019-09-26 00:00:00 16.2 10 Norte 13 Noroeste 0 -- -- 71
2019-09-25 23:00:00 16.7 9 Noroeste 11 Oeste 0 -- -- 65
2019-09-25 22:00:00 17.6 7 Oeste 16 Oeste 0 -- -- 61
2019-09-25 21:00:00 19.1 9 Oeste 11 Oeste 0 -- -- 56
2019-09-25 20:00:00 20.5 5 Oeste 17 Sudoeste 0 -- -- 52
2019-09-25 19:00:00 22.4 13 Sudoeste 19 Sudoeste 0 -- -- 48
2019-09-25 18:00:00 24.3 11 Sudoeste 14 Sudoeste 0 -- -- 44
2019-09-25 17:00:00 24.9 12 Sudeste 22 Este 0 -- -- 43
2019-09-25 16:00:00 25.8 9 Sudeste 19 Este 0 -- -- 42
2019-09-25 15:00:00 25.1 12 Sudeste 21 Sudeste 0 -- -- 43
2019-09-25 14:00:00 23.7 9 Sudeste 15 Sudeste 0 -- -- 45
2019-09-25 13:00:00 22.4 5 Este 15 Sudeste 0 -- -- 53
2019-09-25 12:00:00 20.9 6 Sur 12 Este 0 -- -- 55
2019-09-25 11:00:00 19.1 5 Este 10 Este 0 -- -- 61
2019-09-25 10:00:00 15.5 5 Norte 13 Norte 0 -- -- 77
2019-09-25 09:00:00 14.3 6 Norte 17 Norte 0 -- -- 83
2019-09-25 08:00:00 12.9 8 Noroeste 16 Norte 0 -- -- 87
2019-09-25 07:00:00 13.5 14 Norte 17 Norte 0 -- -- 84
2019-09-25 06:00:00 14.2 8 Norte 17 Norte 0 -- -- 82
2019-09-25 05:00:00 14.1 7 Noroeste 16 Norte 0 -- -- 83
2019-09-25 04:00:00 14.6 10 Norte 17 Norte 0 -- -- 80
2019-09-25 03:00:00 15.4 8 Noroeste 14 Norte 0 -- -- 76
2019-09-25 02:00:00 15.6 5 Noroeste 12 Noroeste 0 -- -- 75
2019-09-25 01:00:00 15.5 7 Noroeste 14 Noroeste 0 -- -- 74
2019-09-25 00:00:00 16.8 10 Noroeste 15 Noroeste 0 -- -- 69
2019-09-24 23:00:00 17.8 7 Noroeste 18 Norte 0 -- -- 66
2019-09-24 22:00:00 19.9 9 Noroeste 14 Oeste 0 -- -- 57
2019-09-24 21:00:00 21.7 9 Oeste 18 Oeste 0 -- -- 50
2019-09-24 20:00:00 23.3 15 Oeste 33 Oeste 0 -- -- 45
2019-09-24 19:00:00 25.7 29 Oeste 44 Oeste 0 -- -- 40
2019-09-24 18:00:00 27.8 30 Oeste 43 Oeste 0 -- -- 39
2019-09-24 17:00:00 28.3 15 Oeste 30 Oeste 0 -- -- 38
2019-09-24 16:00:00 29 10 Sudoeste 27 Oeste 0 -- -- 38
2019-09-24 15:00:00 27.1 10 Oeste 19 Sudoeste 0 -- -- 42
2019-09-24 14:00:00 25.3 11 Sudeste 18 Sudeste 0 -- -- 43
2019-09-24 13:00:00 23.8 10 Sudeste 16 Sudeste 0 -- -- 46
2019-09-24 12:00:00 21 7 Este 13 Este 0 -- -- 53
2019-09-24 11:00:00 18.1 6 Este 10 Este 0 -- -- 64
2019-09-24 10:00:00 15 4 Sudeste 8 Sur 0 -- -- 78
2019-09-24 09:00:00 11.9 3 Noroeste 7 Noroeste 0 -- -- 89
2019-09-24 08:00:00 11.1 5 Oeste 8 Noroeste 0 -- -- 84
2019-09-24 07:00:00 11.4 6 Oeste 9 Oeste 0 -- -- 85
2019-09-24 06:00:00 11.6 6 Oeste 8 Oeste 0 -- -- 83
2019-09-24 05:00:00 11.7 4 Norte 9 Noroeste 0 -- -- 88
2019-09-24 04:00:00 12.5 6 Noroeste 10 Norte 0 -- -- 81
2019-09-24 03:00:00 13.3 3 Oeste 10 Oeste 0 -- -- 74
2019-09-24 02:00:00 13.4 8 Noroeste 13 Noroeste 0 -- -- 79
2019-09-24 01:00:00 14 5 Oeste 14 Norte 0 -- -- 74
2019-09-24 00:00:00 14.5 9 Noroeste 14 Noroeste 0 -- -- 77
2019-09-23 23:00:00 15.5 8 Oeste 18 Norte 0 -- -- 69
2019-09-23 22:00:00 16.5 10 Noroeste 13 Noroeste 0 -- -- 69
2019-09-23 21:00:00 18.3 8 Norte 13 Este 0 -- -- 58
2019-09-23 20:00:00 19.9 11 Sudeste 17 Sudeste 0 -- -- 54
2019-09-23 19:00:00 22 11 Sudeste 19 Sudeste 0 -- -- 47
2019-09-23 18:00:00 22.7 15 Sudeste 23 Sudeste 0 -- -- 45
2019-09-23 17:00:00 22.9 15 Sudeste 22 Sudeste 0 -- -- 45
2019-09-23 16:00:00 23 9 Sudeste 19 Sudeste 0 -- -- 45
2019-09-23 15:00:00 22.7 15 Sudeste 21 Sudeste 0 -- -- 46
2019-09-23 14:00:00 22.4 10 Sudeste 18 Sudeste 0 -- -- 48
2019-09-23 13:00:00 21.3 10 Sudeste 14 Sudeste 0 -- -- 51
2019-09-23 12:00:00 19.1 6 Este 14 Este 0 -- -- 60
2019-09-23 11:00:00 16 2 Sudoeste 6 Oeste 0 -- -- 71
2019-09-23 10:00:00 12.9 0 Calma 5 Noroeste 0 -- -- 90
2019-09-23 09:00:00 10.5 3 Noroeste 6 Oeste 0 -- -- 97
2019-09-23 08:00:00 10 5 Noroeste 9 Noroeste 0 -- -- 96
2019-09-23 07:00:00 10 4 Noroeste 9 Noroeste 0 -- -- 97
2019-09-23 06:00:00 10.5 6 Noroeste 10 Noroeste 0 -- -- 94
2019-09-23 05:00:00 11 5 Norte 9 Noroeste 0 -- -- 96
2019-09-23 04:00:00 11.5 6 Noroeste 9 Oeste 0 -- -- 94
2019-09-23 03:00:00 11.8 6 Noroeste 9 Noroeste 0 -- -- 93
2019-09-23 02:00:00 12.5 4 Noroeste 12 Norte 0 -- -- 92
2019-09-23 01:00:00 13.1 6 Norte 15 Norte 0 -- -- 91
2019-09-23 00:00:00 13.9 6 Noroeste 12 Noroeste 0 -- -- 87
2019-09-22 23:00:00 14.9 8 Noroeste 16 Norte 0 -- -- 82
2019-09-22 22:00:00 16.9 12 Oeste 19 Oeste 0 -- -- 65
2019-09-22 21:00:00 18.2 2 Este 17 Oeste 0 -- -- 65
2019-09-22 20:00:00 19.6 15 Oeste 23 Oeste 0 -- -- 60
2019-09-22 19:00:00 22.4 12 Oeste 21 Oeste 0 -- -- 58
2019-09-22 18:00:00 23.4 15 Oeste 22 Noroeste 0 -- -- 53
2019-09-22 17:00:00 22.5 13 Oeste 25 Oeste 0 -- -- 58
2019-09-22 16:00:00 21 9 Oeste 25 Noroeste 0.2 -- -- 74
2019-09-22 15:00:00 18.9 15 Norte 32 Este 1 -- -- 90
2019-09-22 14:00:00 21.9 13 Sudeste 22 Este 0 -- -- 77
2019-09-22 13:00:00 20.2 8 Sudeste 14 Sudeste 0 -- -- 84
2019-09-22 12:00:00 19.6 6 Sudeste 13 Este 0 -- -- 93
2019-09-22 11:00:00 17.5 6 Sudeste 8 Sudeste 0.2 -- -- 99
2019-09-22 10:00:00 16.9 3 Nordeste 6 Este 0.6 -- -- 99
2019-09-22 09:00:00 16.7 3 Sudoeste 9 Sudoeste 0.2 -- -- 98
2019-09-22 08:00:00 16.4 6 Noroeste 11 Oeste 0 -- -- 98
2019-09-22 07:00:00 16.5 5 Oeste 7 Oeste 0 -- -- 99
2019-09-22 06:00:00 16.4 3 Oeste 11 Sudoeste 1.4 -- -- 98
2019-09-22 05:00:00 16.2 5 Noroeste 12 Oeste 2 -- -- 98
2019-09-22 04:00:00 16.5 5 Noroeste 13 Oeste 1 -- -- 97
2019-09-22 03:00:00 16.6 4 Noroeste 12 Oeste 0 -- -- 97
2019-09-22 02:00:00 16.8 6 Noroeste 9 Oeste 1.8 -- -- 97
2019-09-22 01:00:00 17.1 4 Nordeste 12 Oeste 6.6 -- -- 95
2019-09-22 00:00:00 17.9 10 Noroeste 12 Oeste 0.4 -- -- 87
2019-09-21 23:00:00 20 9 Sudeste 12 Sudeste 0 -- -- 72
2019-09-21 22:00:00 20.9 6 Este 10 Este 0 -- -- 60
2019-09-21 21:00:00 21.6 5 Este 13 Sudeste 0 -- -- 57
2019-09-21 20:00:00 22.6 10 Sudeste 18 Sur 0 -- -- 54
2019-09-21 19:00:00 23.4 12 Sur 24 Sudeste 0 -- -- 52
2019-09-21 18:00:00 24 15 Sudeste 26 Sudeste 0 -- -- 52
2019-09-21 17:00:00 24.6 17 Sudeste 24 Sudeste 0 -- -- 51
2019-09-21 16:00:00 25.3 13 Sudeste 25 Sudeste 0 -- -- 47
2019-09-21 15:00:00 25.7 10 Sudeste 17 Sudeste 0 -- -- 45
2019-09-21 14:00:00 24 7 Sudeste 20 Sudeste 0 -- -- 51
2019-09-21 13:00:00 23.9 10 Oeste 18 Oeste 0 -- -- 58
2019-09-21 12:00:00 20.9 4 Sudoeste 10 Oeste 0 -- -- 71
2019-09-21 11:00:00 17.3 3 Oeste 7 Oeste 0 -- -- 90
2019-09-21 10:00:00 16 6 Noroeste 15 Sudoeste 0 -- -- 94
2019-09-21 09:00:00 15.5 5 Nordeste 8 Nordeste 0.2 -- -- 89
2019-09-21 08:00:00 16.1 3 Noroeste 8 Oeste 0 -- -- 80
2019-09-21 07:00:00 15.7 5 Noroeste 8 Oeste 0 -- -- 81
2019-09-21 06:00:00 15.9 3 Noroeste 6 Oeste 0 -- -- 83
2019-09-21 05:00:00 16.1 0 Calma 8 Noroeste 0 -- -- 82
2019-09-21 04:00:00 16.2 4 Noroeste 12 Noroeste 0 -- -- 80
2019-09-21 03:00:00 16.2 8 Noroeste 13 Oeste 0 -- -- 80
2019-09-21 02:00:00 17.2 10 Oeste 11 Oeste 0 -- -- 78
2019-09-21 01:00:00 18.5 4 Noroeste 9 Noroeste 0 -- -- 74
2019-09-21 00:00:00 19.3 0 Calma 12 Sur 0 -- -- 71
2019-09-20 23:00:00 20 5 Sur 14 Sur 0 -- -- 70
2019-09-20 22:00:00 20.9 8 Sur 20 Sudoeste 0 -- -- 68
2019-09-20 21:00:00 21.9 19 Sur 33 Sur 0 -- -- 66
2019-09-20 20:00:00 23.8 19 Sur 33 Sur 0 -- -- 49
2019-09-20 19:00:00 25.4 16 Sur 25 Sur 0 -- -- 44
2019-09-20 18:00:00 26.2 9 Sur 26 Sur 0 -- -- 43
2019-09-20 17:00:00 27.9 14 Sudeste 29 Sudeste 0 -- -- 40
2019-09-20 16:00:00 26.9 9 Sudeste 24 Sudeste 0 -- -- 42
2019-09-20 15:00:00 27.5 10 Sudeste 22 Sudeste 0 -- -- 43
2019-09-20 14:00:00 26.5 10 Sur 19 Sudeste 0 -- -- 46
2019-09-20 13:00:00 24.5 5 Este 13 Sudeste 0 -- -- 53
2019-09-20 12:00:00 22 3 Oeste 6 Oeste 0 -- -- 60
2019-09-20 11:00:00 18.8 3 Oeste 5 Oeste 0 -- -- 78
2019-09-20 10:00:00 16.5 0 Calma 12 Oeste 0 -- -- 86
2019-09-20 09:00:00 15.4 7 Oeste 10 Noroeste 0 -- -- 87
2019-09-20 08:00:00 15.2 10 Norte 13 Norte 0 -- -- 92
2019-09-20 07:00:00 15.5 5 Noroeste 8 Noroeste 0 -- -- 87
2019-09-20 06:00:00 16.1 4 Noroeste 9 Oeste 0 -- -- 86
2019-09-20 05:00:00 16.4 4 Norte 11 Norte 0 -- -- 86
2019-09-20 04:00:00 16.5 0 Calma 11 Noroeste 0 -- -- 84
2019-09-20 03:00:00 16.7 10 Noroeste 14 Norte 0 -- -- 84
2019-09-20 02:00:00 17 3 Oeste 21 Noroeste 0 -- -- 84
2019-09-20 01:00:00 18 11 Noroeste 17 Noroeste 0 -- -- 77
2019-09-20 00:00:00 18.7 3 Oeste 27 Norte 0 -- -- 73
2019-09-19 23:00:00 19.5 10 Norte 15 Norte 0 -- -- 71
2019-09-19 22:00:00 20.1 9 Oeste 14 Noroeste 0 -- -- 69
2019-09-19 21:00:00 20.8 6 Noroeste 10 Noroeste 0 -- -- 65
2019-09-19 20:00:00 22.3 5 Norte 12 Oeste 0 -- -- 56
2019-09-19 19:00:00 23.5 6 Norte 20 Oeste 0 -- -- 54
2019-09-19 18:00:00 23.2 10 Norte 26 Norte 0 -- -- 57
2019-09-19 17:00:00 25.2 18 Norte 29 Norte 0 -- -- 48
2019-09-19 16:00:00 26.9 5 Sur 13 Sudoeste 0 -- -- 43
2019-09-19 15:00:00 26.5 3 Sudeste 18 Sudeste 0 -- -- 45
2019-09-19 14:00:00 26.4 11 Sudeste 20 Sudeste 0 -- -- 44
2019-09-19 13:00:00 26.6 13 Sudeste 19 Sudeste 0 -- -- 46
2019-09-19 12:00:00 23 6 Sudeste 12 Sudeste 0 -- -- 56
2019-09-19 11:00:00 20.4 3 Sudoeste 6 Sudoeste 0 -- -- 62
2019-09-19 10:00:00 17.3 2 Sudoeste 4 Sudoeste 0 -- -- 79
2019-09-19 09:00:00 14.7 3 Sudoeste 10 Norte 0 -- -- 88
2019-09-19 08:00:00 13.9 3 Oeste 15 Norte 0 -- -- 89
2019-09-19 07:00:00 14.2 9 Noroeste 14 Norte 0 -- -- 88
2019-09-19 06:00:00 14.7 9 Norte 11 Norte 0 -- -- 88
2019-09-19 05:00:00 15.5 10 Norte 18 Norte 0 -- -- 84
2019-09-19 04:00:00 16.4 4 Norte 9 Nordeste 0 -- -- 81
2019-09-19 03:00:00 16.8 6 Oeste 23 Norte 0 -- -- 79
2019-09-19 02:00:00 17.2 3 Nordeste 18 Oeste 0 -- -- 75
2019-09-19 01:00:00 17.5 14 Norte 26 Noroeste 0 -- -- 71
2019-09-19 00:00:00 18.3 15 Norte 22 Norte 0 -- -- 66
2019-09-18 23:00:00 18.7 17 Norte 26 Norte 0 -- -- 65
2019-09-18 22:00:00 19.1 15 Norte 29 Norte 0 -- -- 63
2019-09-18 21:00:00 19.9 14 Norte 29 Norte 0 -- -- 58
2019-09-18 20:00:00 21.3 4 Oeste 34 Norte 0 -- -- 52
2019-09-18 19:00:00 22.1 21 Norte 44 Norte 0 -- -- 49
2019-09-18 18:00:00 27.6 16 Norte 32 Sudoeste 0 -- -- 40
2019-09-18 17:00:00 29.7 15 Sudeste 32 Sudeste 0 -- -- 36
2019-09-18 16:00:00 29.6 20 Sudeste 33 Sudeste 0 -- -- 38
2019-09-18 15:00:00 30.2 18 Sudeste 32 Sudeste 0 -- -- 37
2019-09-18 14:00:00 29.4 18 Sudeste 28 Sudeste 0 -- -- 39
2019-09-18 13:00:00 28.4 17 Sudeste 24 Sudeste 0 -- -- 43
2019-09-18 12:00:00 26.3 6 Sudeste 13 Sudeste 0 -- -- 49
2019-09-18 11:00:00 23.4 3 Sur 8 Sudeste 0 -- -- 59
2019-09-18 10:00:00 20.1 3 Sur 6 Oeste 0 -- -- 69
2019-09-18 09:00:00 16.8 4 Oeste 8 Noroeste 0 -- -- 82
2019-09-18 08:00:00 15.7 4 Noroeste 10 Oeste 0 -- -- 86
2019-09-18 07:00:00 16.5 5 Oeste 12 Oeste 0 -- -- 81
2019-09-18 06:00:00 16.8 5 Oeste 13 Oeste 0 -- -- 82
2019-09-18 05:00:00 17.6 12 Oeste 19 Oeste 0 -- -- 78
2019-09-18 04:00:00 18 10 Oeste 18 Oeste 0 -- -- 77
2019-09-18 03:00:00 18.6 9 Norte 18 Sudoeste 0 -- -- 76
2019-09-18 02:00:00 18.8 9 Oeste 11 Oeste 0 -- -- 75
2019-09-18 01:00:00 19.6 4 Noroeste 15 Oeste 0 -- -- 71
2019-09-18 00:00:00 20.4 8 Oeste 15 Norte 0 -- -- 69
2019-09-17 23:00:00 21.4 6 Noroeste 10 Norte 0 -- -- 66
2019-09-17 22:00:00 22.8 8 Noroeste 14 Noroeste 0 -- -- 61
2019-09-17 21:00:00 24.6 5 Oeste 14 Norte 0 -- -- 52